Etusivu
METAR-TAF:

METAR-TAF

Lentoasemat :

Yap, Yap Island, Mikronesia

Yapin kansainvälinen lentoasema

Leveyspiiri: 09-29N, Pituuspiiri: 138-05E, korkeus merenpinnasta: 28 m

Tämänhetkinen sää

Tämä raportti tehtiin 49 minuuttia sitten, kello 19.50 UTC
Tuuli 3 kn eri suunnista
Lämpötila 26°C
Kosteus 89%
Ilmanpaine 1009 hPa
Näkyvyys: 19.3 km
Muutamia pilviä 1600 ft:n korkeudessa
Hajanaisia pilviä 13000 ft:n korkeudessa
Hajonneita pilviä 30000 ft:n korkeudessa

METAR: PTYA 271950Z VRB03KT 12SM FEW016 SCT130 BKN300 26/24 A2979 RMK SLP088 T02590243

Aika: 06:39 (20:39 UTC)

Sääennuste

Tämä raportti tehtiin 3 tuntia ja 17 minuuttia sitten, kello 17.22 UTC
Ennuste voimassa 27. päivästä klo 18 UTC - 28. päivään klo 18 UTC
Tuuli 4 kn lännestä/luoteesta
Näkyvyys: 10 km
Muutamia pilviä 1600 ft:n korkeudessa
Hajanaisia pilviä 12000 ft:n korkeudessa
sadekuuroja näköpiirissä

TAF: PTYA 271722Z 2718/2818 29004KT P6SM VCSH FEW016 SCT120

Säähavainnot ja -ennusteet yli 4000 lentoasemalta (METAR- ja TAF-raportit).

Käytössä olevat sääasemat on merkitty karttaan keltaisilla ja punaisilla pisteillä.

Aseta hiiri pisteen päälle nähdäksesi sääaseman nimen.

Klikkaa sitten nähdäksesi säähavainnot ja -ennusteet.

Kartan vaihtaminen: klikkaa mustalla rastilla varustettuja vihreitä pisteitä, niin voit zoomata sisään; viivalla varustettua vihreää pistettä, niin voit zoomata ulos tai vihreitä nuolia, niin pääset viereisille kartoille.


METAR-TAF: